Time,TemperatureF,DewpointF,PressureIn,WindDirection,WindDirectionDegrees,WindSpeedMPH,WindSpeedGustMPH,Humidity,HourlyPrecipIn,Conditions,Clouds,dailyrainin,SoftwareType,DateUTC
2013-02-02 00:03:00,9.2,6.6,30.01,SSE,154,0.0,0.0,89,0.00,,,0.00,VWS V14.01,2013-02-02 06:03:00,
2013-02-02 00:09:00,9.1,6.3,30.00,SSE,154,0.0,0.0,88,0.00,,,0.00,VWS V14.01,2013-02-02 06:09:00,
2013-02-02 00:14:00,9.1,6.3,30.00,SSE,154,0.0,0.0,88,0.00,,,0.00,VWS V14.01,2013-02-02 06:14:00,
2013-02-02 00:19:00,9.0,6.2,30.00,SSE,154,0.0,0.0,88,0.00,,,0.00,VWS V14.01,2013-02-02 06:19:00,
2013-02-02 00:24:00,9.0,6.2,30.00,SSE,154,0.0,0.0,88,0.00,,,0.00,VWS V14.01,2013-02-02 06:24:00,
2013-02-02 00:29:00,9.0,6.2,30.00,SSE,154,0.0,0.0,88,0.00,,,0.00,VWS V14.01,2013-02-02 06:29:00,
2013-02-02 00:34:00,9.0,6.2,30.00,SSE,153,0.0,0.0,88,0.00,,,0.00,VWS V14.01,2013-02-02 06:34:00,
2013-02-02 00:39:00,9.0,6.2,30.00,SSE,154,0.0,0.0,88,0.00,,,0.00,VWS V14.01,2013-02-02 06:39:00,
2013-02-02 00:45:00,9.0,6.2,30.00,SSE,153,0.0,0.0,88,0.00,,,0.00,VWS V14.01,2013-02-02 06:45:00,
2013-02-02 00:50:00,8.9,6.1,30.00,SSE,154,0.0,0.0,88,0.00,,,0.00,VWS V14.01,2013-02-02 06:50:00,
2013-02-02 00:56:00,8.9,6.1,30.00,SSE,154,0.0,0.0,88,0.00,,,0.00,VWS V14.01,2013-02-02 06:56:00,
2013-02-02 01:02:00,8.9,6.1,30.01,SSE,153,0.0,0.0,88,0.00,,,0.00,VWS V14.01,2013-02-02 07:02:00,
2013-02-02 01:07:00,8.9,6.1,30.00,SSE,154,0.0,0.0,88,0.00,,,0.00,VWS V14.01,2013-02-02 07:07:00,
2013-02-02 01:12:00,8.9,6.1,30.00,SSE,154,0.0,0.0,88,0.00,,,0.00,VWS V14.01,2013-02-02 07:12:00,
2013-02-02 01:17:00,8.9,6.1,30.00,SSE,154,0.0,0.0,88,0.00,,,0.00,VWS V14.01,2013-02-02 07:17:00,
2013-02-02 01:23:00,8.9,6.1,30.01,SSE,154,0.0,0.0,88,0.00,,,0.00,VWS V14.01,2013-02-02 07:23:00,
2013-02-02 01:28:00,8.9,6.1,30.01,SSE,154,0.0,0.0,88,0.00,,,0.00,VWS V14.01,2013-02-02 07:28:00,
2013-02-02 01:33:00,8.8,6.0,30.01,SSE,154,0.0,0.0,88,0.00,,,0.00,VWS V14.01,2013-02-02 07:33:00,
2013-02-02 01:38:00,8.8,6.0,30.01,SSE,154,0.0,0.0,88,0.00,,,0.00,VWS V14.01,2013-02-02 07:38:00,
2013-02-02 01:43:00,8.8,6.0,30.01,SSE,153,0.0,0.0,88,0.00,,,0.00,VWS V14.01,2013-02-02 07:43:00,
2013-02-02 01:48:00,8.8,6.0,30.01,SSE,154,0.0,0.0,88,0.00,,,0.00,VWS V14.01,2013-02-02 07:48:00,
2013-02-02 01:54:00,8.8,6.2,30.01,SSE,154,0.0,0.0,89,0.00,,,0.00,VWS V14.01,2013-02-02 07:54:00,
2013-02-02 01:59:00,8.8,6.0,30.01,SSE,154,0.0,0.0,88,0.00,,,0.00,VWS V14.01,2013-02-02 07:59:00,
2013-02-02 02:06:00,8.7,5.9,30.02,SSE,154,0.0,0.0,88,0.00,,,0.00,VWS V14.01,2013-02-02 08:06:00,
2013-02-02 02:11:00,8.7,5.9,30.02,SSE,154,0.0,0.0,88,0.00,,,0.00,VWS V14.01,2013-02-02 08:11:00,
2013-02-02 02:16:00,8.6,5.8,30.02,SSE,154,0.0,0.0,88,0.00,,,0.00,VWS V14.01,2013-02-02 08:16:00,
2013-02-02 02:22:00,8.5,5.7,30.02,SSE,154,0.0,0.0,88,0.00,,,0.00,VWS V14.01,2013-02-02 08:22:00,
2013-02-02 02:27:00,8.3,5.5,30.03,SSE,154,0.0,0.0,88,0.00,,,0.00,VWS V14.01,2013-02-02 08:27:00,
2013-02-02 02:32:00,8.2,5.4,30.03,SSE,154,0.0,0.0,88,0.00,,,0.00,VWS V14.01,2013-02-02 08:32:00,
2013-02-02 02:38:00,8.1,5.3,30.03,SSE,154,0.0,0.0,88,0.00,,,0.00,VWS V14.01,2013-02-02 08:38:00,
2013-02-02 02:43:00,8.1,5.3,30.03,SSE,153,0.0,0.0,88,0.00,,,0.00,VWS V14.01,2013-02-02 08:43:00,
2013-02-02 02:48:00,7.8,5.0,30.03,SSE,154,0.0,2.0,88,0.00,,,0.00,VWS V14.01,2013-02-02 08:48:00,
2013-02-02 02:54:00,7.3,4.2,30.03,SSE,154,0.0,4.0,87,0.00,,,0.00,VWS V14.01,2013-02-02 08:54:00,
2013-02-02 02:59:00,6.9,3.9,30.03,SSE,153,0.0,0.0,87,0.00,,,0.00,VWS V14.01,2013-02-02 08:59:00,
2013-02-02 03:04:00,6.7,3.7,30.03,SSE,154,0.0,0.0,87,0.00,,,0.00,VWS V14.01,2013-02-02 09:04:00,
2013-02-02 03:09:00,6.4,3.6,30.03,SSE,154,0.0,0.0,88,0.00,,,0.00,VWS V14.01,2013-02-02 09:09:00,
2013-02-02 03:14:00,6.2,3.2,30.04,SSE,154,0.0,0.0,87,0.00,,,0.00,VWS V14.01,2013-02-02 09:14:00,
2013-02-02 03:20:00,6.0,3.2,30.04,SSE,154,0.0,0.0,88,0.00,,,0.00,VWS V14.01,2013-02-02 09:20:00,
2013-02-02 03:26:00,5.9,3.1,30.04,SSE,154,0.0,0.0,88,0.00,,,0.00,VWS V14.01,2013-02-02 09:26:00,
2013-02-02 03:31:00,5.8,3.0,30.04,SSE,154,0.0,0.0,88,0.00,,,0.00,VWS V14.01,2013-02-02 09:31:00,
2013-02-02 03:36:00,5.7,2.9,30.04,SSE,154,0.0,0.0,88,0.00,,,0.00,VWS V14.01,2013-02-02 09:36:00,
2013-02-02 03:42:00,5.6,2.8,30.04,SSE,154,0.0,0.0,88,0.00,,,0.00,VWS V14.01,2013-02-02 09:42:00,
2013-02-02 03:47:00,5.6,2.8,30.04,SSE,154,0.0,0.0,88,0.00,,,0.00,VWS V14.01,2013-02-02 09:47:00,
2013-02-02 03:52:00,5.5,2.7,30.04,SSE,154,0.0,0.0,88,0.00,,,0.00,VWS V14.01,2013-02-02 09:52:00,
2013-02-02 03:58:00,5.4,2.6,30.05,SSE,154,0.0,1.0,88,0.00,,,0.00,VWS V14.01,2013-02-02 09:58:00,
2013-02-02 04:03:00,5.3,2.5,30.05,SSE,154,0.0,0.0,88,0.00,,,0.00,VWS V14.01,2013-02-02 10:03:00,
2013-02-02 04:09:00,5.0,2.2,30.05,NW,319,0.0,8.0,88,0.00,,,0.00,VWS V14.01,2013-02-02 10:09:00,
2013-02-02 04:15:00,4.7,1.9,30.05,WNW,302,0.0,2.0,88,0.00,,,0.00,VWS V14.01,2013-02-02 10:15:00,
2013-02-02 04:20:00,4.6,1.8,30.05,WNW,302,0.0,0.0,88,0.00,,,0.00,VWS V14.01,2013-02-02 10:20:00,
2013-02-02 04:25:00,4.6,1.8,30.06,NW,311,0.0,0.0,88,0.00,,BKN031,0.00,VWS V14.01,2013-02-02 10:25:00,
2013-02-02 04:30:00,4.4,1.4,30.06,NW,325,2.0,2.0,87,0.00,,BKN031,0.00,VWS V14.01,2013-02-02 10:30:00,
2013-02-02 04:35:00,4.2,1.2,30.06,NW,325,0.0,1.0,87,0.00,,BKN031,0.00,VWS V14.01,2013-02-02 10:35:00,
2013-02-02 04:40:00,4.1,1.1,30.06,NW,305,0.0,0.0,87,0.00,,BKN031,0.00,VWS V14.01,2013-02-02 10:40:00,
2013-02-02 04:45:00,4.0,1.0,30.07,NW,318,2.0,3.0,87,0.00,,BKN031,0.00,VWS V14.01,2013-02-02 10:45:00,
2013-02-02 04:50:00,3.9,0.9,30.07,NW,308,1.0,4.0,87,0.00,,BKN031,0.00,VWS V14.01,2013-02-02 10:50:00,
2013-02-02 04:56:00,3.7,0.7,30.07,NW,316,2.0,2.0,87,0.00,,BKN031,0.00,VWS V14.01,2013-02-02 10:56:00,
2013-02-02 05:01:00,3.7,0.7,30.08,NW,317,0.0,2.0,87,0.00,,OVC033,0.00,VWS V14.01,2013-02-02 11:01:00,
2013-02-02 05:06:00,3.5,0.5,30.08,NW,314,0.0,3.0,87,0.00,,OVC033,0.00,VWS V14.01,2013-02-02 11:06:00,
2013-02-02 05:11:00,3.4,0.4,30.08,NNW,328,4.0,5.0,87,0.00,,OVC033,0.00,VWS V14.01,2013-02-02 11:11:00,
2013-02-02 05:16:00,3.2,0.2,30.08,NNW,329,0.0,3.0,87,0.00,,OVC033,0.00,VWS V14.01,2013-02-02 11:16:00,
2013-02-02 05:21:00,3.0,-0.2,30.08,NW,315,1.0,3.0,86,0.00,,OVC035,0.00,VWS V14.01,2013-02-02 11:21:00,
2013-02-02 05:26:00,2.8,-0.4,30.08,NW,318,0.0,1.0,86,0.00,,OVC035,0.00,VWS V14.01,2013-02-02 11:26:00,
2013-02-02 05:32:00,2.7,-0.5,30.08,NNW,328,3.0,3.0,86,0.00,,OVC035,0.00,VWS V14.01,2013-02-02 11:32:00,
2013-02-02 05:37:00,2.7,-0.5,30.08,NW,318,1.0,3.0,86,0.00,,OVC035,0.00,VWS V14.01,2013-02-02 11:37:00,
2013-02-02 05:43:00,2.6,-0.6,30.09,NNW,336,0.0,4.0,86,0.00,,,0.00,VWS V14.01,2013-02-02 11:43:00,
2013-02-02 05:49:00,2.5,-0.7,30.09,NW,307,1.0,6.0,86,0.00,,,0.00,VWS V14.01,2013-02-02 11:49:00,
2013-02-02 05:54:00,2.4,-0.8,30.09,NW,321,1.0,7.0,86,0.00,,,0.00,VWS V14.01,2013-02-02 11:54:00,
2013-02-02 05:59:00,2.2,-1.0,30.09,NW,323,0.0,3.0,86,0.00,,,0.00,VWS V14.01,2013-02-02 11:59:00,
2013-02-02 06:04:00,2.2,-1.0,30.09,NW,324,1.0,1.0,86,0.00,,OVC035,0.00,VWS V14.01,2013-02-02 12:04:00,
2013-02-02 06:09:00,2.1,-1.1,30.09,NW,321,0.0,4.0,86,0.00,,OVC035,0.00,VWS V14.01,2013-02-02 12:09:00,
2013-02-02 06:15:00,2.1,-1.1,30.09,NW,319,0.0,2.0,86,0.00,,OVC035,0.00,VWS V14.01,2013-02-02 12:15:00,
2013-02-02 06:20:00,2.0,-1.2,30.09,NNW,327,1.0,5.0,86,0.00,,OVC035,0.00,VWS V14.01,2013-02-02 12:20:00,
2013-02-02 06:25:00,2.0,-1.2,30.09,North,5,1.0,4.0,86,0.00,,OVC035,0.00,VWS V14.01,2013-02-02 12:25:00,
2013-02-02 06:30:00,2.0,-1.2,30.09,NNW,348,0.0,3.0,86,0.00,,OVC035,0.00,VWS V14.01,2013-02-02 12:30:00,
2013-02-02 06:36:00,2.0,-1.2,30.10,NW,323,1.0,1.0,86,0.00,,OVC035,0.00,VWS V14.01,2013-02-02 12:36:00,
2013-02-02 06:41:00,2.0,-1.2,30.10,NNW,329,0.0,1.0,86,0.00,,OVC035,0.00,VWS V14.01,2013-02-02 12:41:00,
2013-02-02 06:46:00,2.0,-1.2,30.10,NNW,329,2.0,2.0,86,0.00,,OVC035,0.00,VWS V14.01,2013-02-02 12:46:00,
2013-02-02 06:51:00,2.0,-1.2,30.10,NW,317,0.0,1.0,86,0.00,,OVC035,0.00,VWS V14.01,2013-02-02 12:51:00,
2013-02-02 06:57:00,1.9,-1.3,30.10,NNW,344,0.0,3.0,86,0.00,,OVC035,0.00,VWS V14.01,2013-02-02 12:57:00,
2013-02-02 07:02:00,1.9,-1.3,30.10,NW,312,0.0,1.0,86,0.00,,OVC035,0.00,VWS V14.01,2013-02-02 13:02:00,
2013-02-02 07:07:00,1.9,-1.3,30.11,NNW,328,0.0,0.0,86,0.00,,OVC035,0.00,VWS V14.01,2013-02-02 13:07:00,
2013-02-02 07:12:00,1.9,-1.3,30.10,NNW,328,2.0,3.0,86,0.00,,OVC035,0.00,VWS V14.01,2013-02-02 13:12:00,
2013-02-02 07:17:00,2.0,-1.2,30.11,NW,321,0.0,3.0,86,0.00,,OVC035,0.00,VWS V14.01,2013-02-02 13:17:00,
2013-02-02 07:22:00,2.0,-1.2,30.11,NW,316,0.0,1.0,86,0.00,,OVC035,0.00,VWS V14.01,2013-02-02 13:22:00,
2013-02-02 07:27:00,1.9,-1.3,30.11,NW,320,1.0,1.0,86,0.00,,OVC035,0.00,VWS V14.01,2013-02-02 13:27:00,
2013-02-02 07:33:00,1.9,-1.3,30.11,NW,304,0.0,1.0,86,0.00,,OVC035,0.00,VWS V14.01,2013-02-02 13:33:00,
2013-02-02 07:38:00,1.9,-1.3,30.11,NNW,329,0.0,2.0,86,0.00,,OVC035,0.00,VWS V14.01,2013-02-02 13:38:00,
2013-02-02 07:43:00,2.0,-1.2,30.11,NW,321,0.0,2.0,86,0.00,,OVC035,0.00,VWS V14.01,2013-02-02 13:43:00,
2013-02-02 07:48:00,2.0,-1.2,30.11,NW,321,2.0,2.0,86,0.00,,OVC035,0.00,VWS V14.01,2013-02-02 13:48:00,
2013-02-02 07:53:00,2.0,-1.2,30.11,WNW,300,1.0,1.0,86,0.00,,OVC035,0.00,VWS V14.01,2013-02-02 13:53:00,
2013-02-02 07:59:00,2.0,-1.2,30.12,NW,316,0.0,2.0,86,0.00,,OVC035,0.00,VWS V14.01,2013-02-02 13:59:00,
2013-02-02 08:04:00,2.1,-1.1,30.12,NW,316,0.0,2.0,86,0.00,,OVC035,0.00,VWS V14.01,2013-02-02 14:04:00,
2013-02-02 08:09:00,2.1,-1.1,30.12,NNW,329,0.0,0.0,86,0.00,,OVC035,0.00,VWS V14.01,2013-02-02 14:09:00,
2013-02-02 08:14:00,2.2,-1.3,30.12,NNW,329,0.0,0.0,85,0.00,,OVC035,0.00,VWS V14.01,2013-02-02 14:14:00,
2013-02-02 08:19:00,2.3,-1.2,30.12,NNW,329,0.0,0.0,85,0.00,,OVC035,0.00,VWS V14.01,2013-02-02 14:19:00,
2013-02-02 08:24:00,2.4,-1.1,30.13,NNW,329,0.0,0.0,85,0.00,,OVC035,0.00,VWS V14.01,2013-02-02 14:24:00,
2013-02-02 08:29:00,2.5,-1.0,30.13,NNW,327,0.0,2.0,85,0.00,,OVC035,0.00,VWS V14.01,2013-02-02 14:29:00,
2013-02-02 08:34:00,2.6,-0.9,30.13,NW,326,0.0,0.0,85,0.00,,OVC035,0.00,VWS V14.01,2013-02-02 14:34:00,
2013-02-02 08:40:00,2.6,-0.9,30.13,NW,319,0.0,1.0,85,0.00,,OVC035,0.00,VWS V14.01,2013-02-02 14:40:00,
2013-02-02 08:45:00,2.8,-0.7,30.13,NW,319,0.0,1.0,85,0.00,,,0.00,VWS V14.01,2013-02-02 14:45:00,
2013-02-02 08:50:00,3.1,-0.4,30.13,NW,325,0.0,2.0,85,0.00,,,0.00,VWS V14.01,2013-02-02 14:50:00,
2013-02-02 08:56:00,3.2,-0.5,30.13,NW,304,0.0,2.0,84,0.00,,,0.00,VWS V14.01,2013-02-02 14:56:00,
2013-02-02 09:01:00,3.3,-0.4,30.13,NW,305,0.0,3.0,84,0.00,,,0.00,VWS V14.01,2013-02-02 15:01:00,
2013-02-02 09:06:00,3.3,-0.4,30.13,NW,305,0.0,0.0,84,0.00,,,0.00,VWS V14.01,2013-02-02 15:06:00,
2013-02-02 09:11:00,3.3,-0.7,30.13,NW,305,0.0,0.0,83,0.00,,,0.00,VWS V14.01,2013-02-02 15:11:00,
2013-02-02 09:16:00,3.4,-0.6,30.13,NW,305,0.0,0.0,83,0.00,,,0.00,VWS V14.01,2013-02-02 15:16:00,
2013-02-02 09:21:00,3.4,-0.6,30.13,NW,305,0.0,0.0,83,0.00,,SCT037,0.00,VWS V14.01,2013-02-02 15:21:00,
2013-02-02 09:26:00,3.5,-0.5,30.13,NW,305,0.0,0.0,83,0.00,,SCT037,0.00,VWS V14.01,2013-02-02 15:26:00,
2013-02-02 09:31:00,3.7,-0.3,30.12,NW,305,0.0,1.0,83,0.00,,SCT037,0.00,VWS V14.01,2013-02-02 15:31:00,
2013-02-02 09:36:00,3.8,-0.5,30.12,NW,305,0.0,0.0,82,0.00,,SCT037,0.00,VWS V14.01,2013-02-02 15:36:00,
2013-02-02 09:42:00,3.8,-0.5,30.12,NW,305,0.0,0.0,82,0.00,,CLR,0.00,VWS V14.01,2013-02-02 15:42:00,
2013-02-02 09:48:00,3.8,-0.5,30.12,NW,305,0.0,0.0,82,0.00,,CLR,0.00,VWS V14.01,2013-02-02 15:48:00,
2013-02-02 09:53:00,3.8,-0.5,30.12,NW,305,0.0,0.0,82,0.00,,CLR,0.00,VWS V14.01,2013-02-02 15:53:00,
2013-02-02 09:59:00,4.0,-0.3,30.12,NW,305,0.0,0.0,82,0.00,,CLR,0.00,VWS V14.01,2013-02-02 15:59:00,
2013-02-02 10:04:00,4.0,-0.5,30.12,NW,305,0.0,1.0,81,0.00,,CLR,0.00,VWS V14.01,2013-02-02 16:04:00,
2013-02-02 10:09:00,4.0,-0.5,30.12,NW,305,0.0,0.0,81,0.00,,CLR,0.00,VWS V14.01,2013-02-02 16:09:00,
2013-02-02 10:15:00,4.1,-0.4,30.12,NW,305,0.0,0.0,81,0.00,,CLR,0.00,VWS V14.01,2013-02-02 16:15:00,
2013-02-02 10:21:00,4.3,-0.2,30.12,NW,305,0.0,0.0,81,0.00,,CLR,0.00,VWS V14.01,2013-02-02 16:21:00,
2013-02-02 10:26:00,4.4,-0.4,30.12,NW,305,1.0,2.0,80,0.00,,CLR,0.00,VWS V14.01,2013-02-02 16:26:00,
2013-02-02 10:32:00,4.3,-0.5,30.12,WNW,292,0.0,2.0,80,0.00,,CLR,0.00,VWS V14.01,2013-02-02 16:32:00,
2013-02-02 10:37:00,4.3,-0.5,30.12,WNW,292,0.0,1.0,80,0.00,,CLR,0.00,VWS V14.01,2013-02-02 16:37:00,
2013-02-02 10:43:00,4.7,-0.1,30.13,WNW,292,0.0,2.0,80,0.00,,CLR,0.00,VWS V14.01,2013-02-02 16:43:00,
2013-02-02 10:49:00,4.8,0.0,30.13,WNW,292,0.0,3.0,80,0.00,,CLR,0.00,VWS V14.01,2013-02-02 16:49:00,
2013-02-02 10:54:00,4.7,-0.4,30.13,WNW,292,0.0,2.0,79,0.00,,CLR,0.00,VWS V14.01,2013-02-02 16:54:00,
2013-02-02 11:00:00,5.1,0.3,30.13,WNW,292,0.0,1.0,80,0.00,,CLR,0.00,VWS V14.01,2013-02-02 17:00:00,
2013-02-02 11:05:00,5.4,0.3,30.13,WNW,292,0.0,0.0,79,0.00,,CLR,0.00,VWS V14.01,2013-02-02 17:05:00,
2013-02-02 11:11:00,5.6,0.5,30.13,WNW,292,0.0,3.0,79,0.00,,CLR,0.00,VWS V14.01,2013-02-02 17:11:00,
2013-02-02 11:16:00,5.7,0.3,30.13,WNW,292,0.0,0.0,78,0.00,,CLR,0.00,VWS V14.01,2013-02-02 17:16:00,
2013-02-02 11:21:00,5.8,0.4,30.13,WNW,292,1.0,1.0,78,0.00,,SCT110,0.00,VWS V14.01,2013-02-02 17:21:00,
2013-02-02 11:27:00,6.1,0.7,30.13,WNW,292,0.0,0.0,78,0.00,,SCT110,0.00,VWS V14.01,2013-02-02 17:27:00,
2013-02-02 11:32:00,6.4,1.0,30.13,WNW,292,0.0,1.0,78,0.00,,SCT110,0.00,VWS V14.01,2013-02-02 17:32:00,
2013-02-02 11:38:00,6.4,0.7,30.13,WNW,295,2.0,2.0,77,0.00,,SCT110,0.00,VWS V14.01,2013-02-02 17:38:00,
2013-02-02 11:43:00,6.4,0.7,30.13,WNW,295,1.0,1.0,77,0.00,,CLR,0.00,VWS V14.01,2013-02-02 17:43:00,
2013-02-02 11:48:00,6.7,1.0,30.13,WNW,300,0.0,0.0,77,0.00,,CLR,0.00,VWS V14.01,2013-02-02 17:48:00,
2013-02-02 11:53:00,7.1,1.1,30.12,WNW,300,0.0,0.0,76,0.00,,CLR,0.00,VWS V14.01,2013-02-02 17:53:00,
2013-02-02 11:59:00,7.5,1.5,30.12,WNW,300,0.0,0.0,76,0.00,,CLR,0.00,VWS V14.01,2013-02-02 17:59:00,
2013-02-02 12:04:00,7.6,1.4,30.12,WNW,300,0.0,2.0,75,0.00,,CLR,0.00,VWS V14.01,2013-02-02 18:04:00,
2013-02-02 12:09:00,7.7,1.4,30.11,WNW,300,0.0,0.0,75,0.00,,CLR,0.00,VWS V14.01,2013-02-02 18:09:00,
2013-02-02 12:14:00,7.9,1.6,30.11,WNW,300,0.0,0.0,75,0.00,,CLR,0.00,VWS V14.01,2013-02-02 18:14:00,
2013-02-02 12:19:00,8.1,1.8,30.11,WNW,300,2.0,2.0,75,0.00,,CLR,0.00,VWS V14.01,2013-02-02 18:19:00,
2013-02-02 12:24:00,8.2,1.6,30.10,WNW,300,0.0,1.0,74,0.00,,CLR,0.00,VWS V14.01,2013-02-02 18:24:00,
2013-02-02 12:29:00,8.5,2.2,30.10,WNW,300,0.0,0.0,75,0.00,,CLR,0.00,VWS V14.01,2013-02-02 18:29:00,
2013-02-02 12:34:00,9.2,2.6,30.10,WNW,300,1.0,2.0,74,0.00,,CLR,0.00,VWS V14.01,2013-02-02 18:34:00,
2013-02-02 12:39:00,9.4,2.5,30.10,WNW,300,0.0,1.0,73,0.00,,CLR,0.00,VWS V14.01,2013-02-02 18:39:00,
2013-02-02 12:44:00,9.6,2.7,30.10,WNW,300,0.0,2.0,73,0.00,,CLR,0.00,VWS V14.01,2013-02-02 18:44:00,
2013-02-02 12:50:00,9.3,2.4,30.09,WNW,300,0.0,2.0,73,0.00,,CLR,0.00,VWS V14.01,2013-02-02 18:50:00,
2013-02-02 12:55:00,9.0,2.1,30.09,WNW,300,2.0,2.0,73,0.00,,CLR,0.00,VWS V14.01,2013-02-02 18:55:00,
2013-02-02 13:00:00,8.7,2.1,30.09,WNW,299,0.0,3.0,74,0.00,,CLR,0.00,VWS V14.01,2013-02-02 19:00:00,
2013-02-02 13:06:00,9.1,2.8,30.09,WNW,299,0.0,0.0,75,0.00,,CLR,0.00,VWS V14.01,2013-02-02 19:06:00,
2013-02-02 13:12:00,9.3,2.7,30.09,WNW,299,0.0,1.0,74,0.00,,CLR,0.00,VWS V14.01,2013-02-02 19:12:00,
2013-02-02 13:17:00,9.5,2.9,30.09,SSW,205,1.0,3.0,74,0.00,,CLR,0.00,VWS V14.01,2013-02-02 19:17:00,
2013-02-02 13:22:00,9.5,2.9,30.08,SSW,207,0.0,1.0,74,0.00,,CLR,0.00,VWS V14.01,2013-02-02 19:22:00,
2013-02-02 13:27:00,9.6,2.7,30.08,SSW,207,0.0,0.0,73,0.00,,CLR,0.00,VWS V14.01,2013-02-02 19:27:00,
2013-02-02 13:32:00,9.8,3.2,30.08,SSW,208,1.0,2.0,74,0.00,,CLR,0.00,VWS V14.01,2013-02-02 19:32:00,
2013-02-02 13:37:00,9.9,3.0,30.08,SSW,208,0.0,3.0,73,0.00,,CLR,0.00,VWS V14.01,2013-02-02 19:37:00,
2013-02-02 13:42:00,9.9,3.0,30.08,SSW,208,0.0,3.0,73,0.00,,CLR,0.00,VWS V14.01,2013-02-02 19:42:00,
2013-02-02 13:48:00,10.1,3.5,30.08,SSW,208,0.0,1.0,74,0.00,,CLR,0.00,VWS V14.01,2013-02-02 19:48:00,
2013-02-02 13:54:00,10.5,3.6,30.08,SW,229,0.0,1.0,73,0.00,,CLR,0.00,VWS V14.01,2013-02-02 19:54:00,
2013-02-02 13:59:00,10.7,3.5,30.07,SSW,193,0.0,4.0,72,0.00,,CLR,0.00,VWS V14.01,2013-02-02 19:59:00,
2013-02-02 14:05:00,11.1,3.8,30.07,South,190,0.0,3.0,72,0.00,,CLR,0.00,VWS V14.01,2013-02-02 20:05:00,
2013-02-02 14:10:00,11.1,3.5,30.06,South,187,0.0,2.0,71,0.00,,CLR,0.00,VWS V14.01,2013-02-02 20:10:00,
2013-02-02 14:15:00,11.1,3.5,30.06,South,187,0.0,2.0,71,0.00,,CLR,0.00,VWS V14.01,2013-02-02 20:15:00,
2013-02-02 14:20:00,10.9,3.4,30.06,South,187,0.0,0.0,71,0.00,,CLR,0.00,VWS V14.01,2013-02-02 20:20:00,
2013-02-02 14:25:00,10.7,3.2,30.05,South,184,0.0,5.0,71,0.00,,CLR,0.00,VWS V14.01,2013-02-02 20:25:00,
2013-02-02 14:30:00,10.4,2.9,30.05,South,175,0.0,2.0,71,0.00,,CLR,0.00,VWS V14.01,2013-02-02 20:30:00,
2013-02-02 14:35:00,10.7,3.5,30.05,South,182,1.0,1.0,72,0.00,,CLR,0.00,VWS V14.01,2013-02-02 20:35:00,
2013-02-02 14:40:00,10.9,3.7,30.05,South,184,0.0,1.0,72,0.00,,CLR,0.00,VWS V14.01,2013-02-02 20:40:00,
2013-02-02 14:45:00,10.7,2.9,30.04,SSE,163,0.0,0.0,70,0.00,,CLR,0.00,VWS V14.01,2013-02-02 20:45:00,
2013-02-02 14:50:00,10.5,3.0,30.04,SSE,163,0.0,0.0,71,0.00,,CLR,0.00,VWS V14.01,2013-02-02 20:50:00,
2013-02-02 14:55:00,10.4,2.9,30.04,SSE,163,0.0,0.0,71,0.00,,CLR,0.00,VWS V14.01,2013-02-02 20:55:00,
2013-02-02 15:00:00,10.3,2.8,30.04,SSE,163,1.0,2.0,71,0.00,,CLR,0.00,VWS V14.01,2013-02-02 21:00:00,
2013-02-02 15:05:00,10.4,3.2,30.05,SSE,163,0.0,0.0,72,0.00,,CLR,0.00,VWS V14.01,2013-02-02 21:05:00,
2013-02-02 15:10:00,10.3,3.1,30.05,SSE,163,0.0,0.0,72,0.00,,CLR,0.00,VWS V14.01,2013-02-02 21:10:00,
2013-02-02 15:16:00,10.0,3.1,30.05,SSE,163,0.0,2.0,73,0.00,,CLR,0.00,VWS V14.01,2013-02-02 21:16:00,
2013-02-02 15:22:00,9.8,3.2,30.05,SSE,163,0.0,0.0,74,0.00,,CLR,0.00,VWS V14.01,2013-02-02 21:22:00,
2013-02-02 15:28:00,9.9,3.3,30.05,SSE,163,0.0,0.0,74,0.00,,CLR,0.00,VWS V14.01,2013-02-02 21:28:00,
2013-02-02 15:33:00,9.9,3.0,30.04,SSE,163,0.0,2.0,73,0.00,,CLR,0.00,VWS V14.01,2013-02-02 21:33:00,
2013-02-02 15:39:00,10.1,3.5,30.04,SSE,163,0.0,0.0,74,0.00,,CLR,0.00,VWS V14.01,2013-02-02 21:39:00,
2013-02-02 15:44:00,10.4,3.8,30.03,SSE,163,0.0,2.0,74,0.00,,CLR,0.00,VWS V14.01,2013-02-02 21:44:00,
2013-02-02 15:50:00,10.5,3.3,30.03,SSE,163,0.0,0.0,72,0.00,,CLR,0.00,VWS V14.01,2013-02-02 21:50:00,
2013-02-02 15:55:00,10.6,3.7,30.03,SSE,163,0.0,2.0,73,0.00,,CLR,0.00,VWS V14.01,2013-02-02 21:55:00,
2013-02-02 16:00:00,10.4,3.2,30.03,SSE,163,0.0,2.0,72,0.00,,CLR,0.00,VWS V14.01,2013-02-02 22:00:00,
2013-02-02 16:05:00,10.2,3.0,30.03,SSE,163,0.0,0.0,72,0.00,,CLR,0.00,VWS V14.01,2013-02-02 22:05:00,
2013-02-02 16:11:00,9.9,3.0,30.03,SSE,163,0.0,1.0,73,0.00,,CLR,0.00,VWS V14.01,2013-02-02 22:11:00,
2013-02-02 16:16:00,9.6,2.7,30.02,SSE,163,2.0,2.0,73,0.00,,CLR,0.00,VWS V14.01,2013-02-02 22:16:00,
2013-02-02 16:21:00,9.4,2.8,30.02,SSE,163,0.0,0.0,74,0.00,,CLR,0.00,VWS V14.01,2013-02-02 22:21:00,
2013-02-02 16:27:00,9.1,2.5,30.02,SSE,163,0.0,1.0,74,0.00,,CLR,0.00,VWS V14.01,2013-02-02 22:27:00,
2013-02-02 16:32:00,9.0,2.7,30.02,SSE,163,0.0,1.0,75,0.00,,CLR,0.00,VWS V14.01,2013-02-02 22:32:00,
2013-02-02 16:37:00,9.0,2.7,30.02,SSE,163,0.0,0.0,75,0.00,,CLR,0.00,VWS V14.01,2013-02-02 22:37:00,
2013-02-02 16:42:00,8.8,2.8,30.02,SSE,163,0.0,0.0,76,0.00,,CLR,0.00,VWS V14.01,2013-02-02 22:42:00,
2013-02-02 16:48:00,8.7,2.7,30.01,SSE,163,0.0,0.0,76,0.00,,CLR,0.00,VWS V14.01,2013-02-02 22:48:00,
2013-02-02 16:53:00,8.6,2.6,30.01,SSE,163,0.0,0.0,76,0.00,,CLR,0.00,VWS V14.01,2013-02-02 22:53:00,
2013-02-02 16:59:00,8.5,2.8,30.01,SSE,163,0.0,0.0,77,0.00,,CLR,0.00,VWS V14.01,2013-02-02 22:59:00,
2013-02-02 17:04:00,8.6,2.9,30.01,SSE,163,0.0,0.0,77,0.00,,CLR,0.00,VWS V14.01,2013-02-02 23:04:00,
2013-02-02 17:09:00,8.7,3.3,30.01,SSE,163,0.0,0.0,78,0.00,,CLR,0.00,VWS V14.01,2013-02-02 23:09:00,
2013-02-02 17:15:00,8.8,3.4,30.01,SSE,163,0.0,0.0,78,0.00,,CLR,0.00,VWS V14.01,2013-02-02 23:15:00,
2013-02-02 17:20:00,8.9,3.5,30.01,SSE,163,0.0,0.0,78,0.00,,CLR,0.00,VWS V14.01,2013-02-02 23:20:00,
2013-02-02 17:26:00,9.1,3.9,30.00,SSE,163,0.0,0.0,79,0.00,,SCT060,0.00,VWS V14.01,2013-02-02 23:26:00,
2013-02-02 17:31:00,9.1,3.7,30.00,SSE,163,0.0,0.0,78,0.00,,SCT060,0.00,VWS V14.01,2013-02-02 23:31:00,
2013-02-02 17:36:00,9.2,3.7,30.00,SSE,163,0.0,1.0,78,0.00,,SCT060,0.00,VWS V14.01,2013-02-02 23:36:00,
2013-02-02 17:41:00,9.2,4.0,30.00,SSE,163,0.0,0.0,79,0.00,,OVC110,0.00,VWS V14.01,2013-02-02 23:41:00,
2013-02-02 17:47:00,9.3,4.1,30.00,SSE,163,0.0,0.0,79,0.00,,OVC110,0.00,VWS V14.01,2013-02-02 23:47:00,
2013-02-02 17:53:00,9.4,4.2,30.00,SSE,163,0.0,0.0,79,0.00,,OVC110,0.00,VWS V14.01,2013-02-02 23:53:00,
2013-02-02 17:59:00,9.5,4.3,30.00,SSE,163,0.0,0.0,79,0.00,,OVC110,0.00,VWS V14.01,2013-02-02 23:59:00,
2013-02-02 18:05:00,9.6,4.7,30.00,SSE,163,4.0,4.0,80,0.00,,,0.00,VWS V14.01,2013-02-03 00:05:00,
2013-02-02 18:10:00,9.8,4.9,30.00,SSE,163,0.0,0.0,80,0.00,,,0.00,VWS V14.01,2013-02-03 00:10:00,
2013-02-02 18:15:00,9.9,5.0,30.00,SSE,163,0.0,2.0,80,0.00,,,0.00,VWS V14.01,2013-02-03 00:15:00,
2013-02-02 18:20:00,9.9,5.2,30.00,SSE,163,2.0,2.0,81,0.00,,,0.00,VWS V14.01,2013-02-03 00:20:00,
2013-02-02 18:25:00,9.9,5.2,30.00,SSE,163,0.0,5.0,81,0.00,,,0.00,VWS V14.01,2013-02-03 00:25:00,
2013-02-02 18:30:00,9.9,5.2,29.99,SSE,163,4.0,5.0,81,0.00,,,0.00,VWS V14.01,2013-02-03 00:30:00,
2013-02-02 18:36:00,9.9,5.5,29.99,SSE,163,0.0,5.0,82,0.00,,,0.00,VWS V14.01,2013-02-03 00:36:00,
2013-02-02 18:41:00,9.9,5.5,29.99,SSE,163,5.0,5.0,82,0.00,,,0.00,VWS V14.01,2013-02-03 00:41:00,
2013-02-02 18:47:00,9.8,5.7,29.99,SSE,163,1.0,2.0,83,0.00,,,0.00,VWS V14.01,2013-02-03 00:47:00,
2013-02-02 18:52:00,9.8,5.7,29.98,SSE,163,0.0,5.0,83,0.00,,,0.00,VWS V14.01,2013-02-03 00:52:00,
2013-02-02 18:57:00,9.8,5.9,29.98,SSE,163,0.0,0.0,84,0.00,,,0.00,VWS V14.01,2013-02-03 00:57:00,
2013-02-02 19:02:00,9.7,6.1,29.98,SSE,163,0.0,2.0,85,0.00,,,0.00,VWS V14.01,2013-02-03 01:02:00,
2013-02-02 19:08:00,9.7,6.1,29.98,SSE,163,0.0,0.0,85,0.00,,,0.00,VWS V14.01,2013-02-03 01:08:00,
2013-02-02 19:13:00,9.7,6.1,29.98,SSE,163,0.0,0.0,85,0.00,,,0.00,VWS V14.01,2013-02-03 01:13:00,
2013-02-02 19:19:00,9.7,6.4,29.98,SSE,163,0.0,0.0,86,0.00,,,0.00,VWS V14.01,2013-02-03 01:19:00,
2013-02-02 19:24:00,9.8,6.5,29.97,SSE,163,0.0,0.0,86,0.00,,,0.00,VWS V14.01,2013-02-03 01:24:00,
2013-02-02 19:29:00,9.8,6.5,29.97,SSE,163,0.0,0.0,86,0.00,,,0.00,VWS V14.01,2013-02-03 01:29:00,
2013-02-02 19:34:00,9.8,6.7,29.97,SSE,163,0.0,0.0,87,0.00,,,0.00,VWS V14.01,2013-02-03 01:34:00,
2013-02-02 19:39:00,9.8,6.7,29.96,SSE,163,0.0,0.0,87,0.00,,,0.00,VWS V14.01,2013-02-03 01:39:00,
2013-02-02 19:45:00,9.8,6.7,29.97,SSE,163,0.0,0.0,87,0.00,,,0.00,VWS V14.01,2013-02-03 01:45:00,
2013-02-02 19:50:00,9.8,7.0,29.96,SSE,163,0.0,0.0,88,0.00,,,0.00,VWS V14.01,2013-02-03 01:50:00,
2013-02-02 19:55:00,9.9,7.1,29.96,SSE,163,0.0,0.0,88,0.00,,,0.00,VWS V14.01,2013-02-03 01:55:00,
2013-02-02 20:00:00,9.9,7.1,29.96,SSE,163,0.0,0.0,88,0.00,,,0.00,VWS V14.01,2013-02-03 02:00:00,
2013-02-02 20:06:00,9.9,7.1,29.96,SSE,163,0.0,0.0,88,0.00,,,0.00,VWS V14.01,2013-02-03 02:06:00,
2013-02-02 20:11:00,10.0,7.2,29.95,SSE,163,0.0,0.0,88,0.00,,,0.00,VWS V14.01,2013-02-03 02:11:00,
2013-02-02 20:16:00,10.0,7.2,29.95,SSE,163,0.0,0.0,88,0.00,,,0.00,VWS V14.01,2013-02-03 02:16:00,
2013-02-02 20:22:00,10.0,7.2,29.95,SSE,163,0.0,0.0,88,0.00,,,0.00,VWS V14.01,2013-02-03 02:22:00,
2013-02-02 20:28:00,10.0,7.2,29.95,SSE,163,0.0,0.0,88,0.00,,,0.00,VWS V14.01,2013-02-03 02:28:00,
2013-02-02 20:33:00,10.0,7.4,29.94,SSE,163,0.0,0.0,89,0.00,,,0.00,VWS V14.01,2013-02-03 02:33:00,
2013-02-02 20:38:00,10.1,7.5,29.94,SSE,163,0.0,0.0,89,0.00,,,0.00,VWS V14.01,2013-02-03 02:38:00,
2013-02-02 20:43:00,10.1,7.3,29.94,SSE,163,0.0,0.0,88,0.00,,,0.00,VWS V14.01,2013-02-03 02:43:00,
2013-02-02 20:48:00,10.1,7.5,29.94,SSE,163,0.0,0.0,89,0.00,,,0.00,VWS V14.01,2013-02-03 02:48:00,
2013-02-02 20:53:00,10.1,7.5,29.94,SSE,163,0.0,0.0,89,0.00,,,0.00,VWS V14.01,2013-02-03 02:53:00,
2013-02-02 20:58:00,10.1,7.5,29.93,SSE,163,0.0,0.0,89,0.00,,,0.00,VWS V14.01,2013-02-03 02:58:00,
2013-02-02 21:03:00,10.2,7.6,29.94,SSE,163,0.0,0.0,89,0.00,,,0.00,VWS V14.01,2013-02-03 03:03:00,
2013-02-02 21:08:00,10.2,7.6,29.93,SSE,163,0.0,0.0,89,0.00,,,0.00,VWS V14.01,2013-02-03 03:08:00,
2013-02-02 21:14:00,10.3,7.7,29.93,SSE,163,0.0,0.0,89,0.00,,,0.00,VWS V14.01,2013-02-03 03:14:00,
2013-02-02 21:20:00,10.3,7.7,29.93,SSE,163,0.0,0.0,89,0.00,,,0.00,VWS V14.01,2013-02-03 03:20:00,
2013-02-02 21:25:00,10.3,7.7,29.94,SSE,163,0.0,0.0,89,0.00,,,0.00,VWS V14.01,2013-02-03 03:25:00,
2013-02-02 21:31:00,10.3,7.7,29.93,SSE,163,0.0,0.0,89,0.00,,,0.00,VWS V14.01,2013-02-03 03:31:00,
2013-02-02 21:37:00,10.4,7.8,29.93,SSE,163,0.0,0.0,89,0.00,,,0.00,VWS V14.01,2013-02-03 03:37:00,
2013-02-02 21:42:00,10.4,7.8,29.94,SSE,163,0.0,0.0,89,0.00,,,0.00,VWS V14.01,2013-02-03 03:42:00,
2013-02-02 21:47:00,10.5,7.9,29.94,SSE,163,0.0,0.0,89,0.00,,,0.00,VWS V14.01,2013-02-03 03:47:00,
2013-02-02 21:53:00,10.5,7.9,29.94,SSE,163,0.0,0.0,89,0.00,,,0.00,VWS V14.01,2013-02-03 03:53:00,
2013-02-02 21:58:00,10.6,8.0,29.94,SSE,163,0.0,0.0,89,0.00,,,0.00,VWS V14.01,2013-02-03 03:58:00,
2013-02-02 22:03:00,10.7,8.1,29.93,SSE,163,0.0,0.0,89,0.00,,,0.00,VWS V14.01,2013-02-03 04:03:00,
2013-02-02 22:08:00,10.7,8.1,29.93,SSE,163,0.0,0.0,89,0.00,,,0.00,VWS V14.01,2013-02-03 04:08:00,
2013-02-02 22:13:00,10.7,8.1,29.93,SSE,163,0.0,0.0,89,0.00,,,0.00,VWS V14.01,2013-02-03 04:13:00,
2013-02-02 22:19:00,10.8,8.2,29.93,SSE,163,0.0,0.0,89,0.00,,,0.00,VWS V14.01,2013-02-03 04:19:00,
2013-02-02 22:25:00,10.9,8.3,29.93,SSE,163,0.0,0.0,89,0.00,,,0.00,VWS V14.01,2013-02-03 04:25:00,
2013-02-02 22:30:00,10.9,8.3,29.94,SSE,163,0.0,0.0,89,0.00,,,0.00,VWS V14.01,2013-02-03 04:30:00,
2013-02-02 22:35:00,11.0,8.4,29.93,SSE,163,0.0,0.0,89,0.00,,,0.00,VWS V14.01,2013-02-03 04:35:00,
2013-02-02 22:41:00,11.0,8.4,29.93,SSE,163,0.0,0.0,89,0.00,,OVC018,0.00,VWS V14.01,2013-02-03 04:41:00,
2013-02-02 22:46:00,11.0,8.4,29.93,SSE,163,0.0,0.0,89,0.00,,OVC018,0.00,VWS V14.01,2013-02-03 04:46:00,
2013-02-02 22:51:00,11.1,8.5,29.93,SSE,163,0.0,0.0,89,0.00,,OVC018,0.00,VWS V14.01,2013-02-03 04:51:00,
2013-02-02 22:56:00,11.1,8.5,29.93,SSE,163,0.0,0.0,89,0.00,,OVC018,0.00,VWS V14.01,2013-02-03 04:56:00,
2013-02-02 23:00:00,11.1,8.5,29.93,SSE,163,0.0,0.0,89,0.00,,OVC018,0.00,VWS V14.01,2013-02-03 05:00:00,
2013-02-02 23:02:00,11.2,8.6,29.93,SSE,163,0.0,0.0,89,0.00,,OVC016,0.00,VWS V14.01,2013-02-03 05:02:00,
2013-02-02 23:08:00,11.2,8.6,29.93,SSE,163,0.0,0.0,89,0.00,,OVC016,0.00,VWS V14.01,2013-02-03 05:08:00,
2013-02-02 23:11:00,11.2,8.6,29.93,SSE,163,0.0,0.0,89,0.00,,OVC016,0.00,VWS V14.01,2013-02-03 05:11:00,
2013-02-02 23:16:00,11.2,8.6,29.93,SSE,163,0.0,0.0,89,0.00,,OVC016,0.00,VWS V14.01,2013-02-03 05:16:00,
2013-02-02 23:21:00,11.3,8.7,29.93,SSE,163,0.0,0.0,89,0.00,,OVC014,0.00,VWS V14.01,2013-02-03 05:21:00,
2013-02-02 23:26:00,11.3,8.7,29.94,SSE,163,0.0,0.0,89,0.00,,OVC014,0.00,VWS V14.01,2013-02-03 05:26:00,
2013-02-02 23:31:00,11.4,8.8,29.94,SSE,163,0.0,0.0,89,0.00,,OVC014,0.00,VWS V14.01,2013-02-03 05:31:00,
2013-02-02 23:37:00,11.4,8.8,29.94,SSE,163,0.0,0.0,89,0.00,,OVC014,0.00,VWS V14.01,2013-02-03 05:37:00,
2013-02-02 23:42:00,11.4,8.8,29.94,SSE,163,0.0,1.0,89,0.00,,OVC014,0.00,VWS V14.01,2013-02-03 05:42:00,
2013-02-02 23:47:00,11.4,8.8,29.94,SSE,163,0.0,2.0,89,0.00,,OVC014,0.00,VWS V14.01,2013-02-03 05:47:00,
2013-02-02 23:52:00,11.5,8.9,29.94,SSE,163,0.0,1.0,89,0.00,,OVC014,0.00,VWS V14.01,2013-02-03 05:52:00,
2013-02-02 23:57:00,11.5,8.9,29.95,SSE,163,0.0,0.0,89,0.00,,OVC014,0.00,VWS V14.01,2013-02-03 05:57:00,